Terminal Aerodrome Forecast
Issued by NWS

Home | Current Version | Previous Version | Text Only | Print | Product List | Glossary On
Versions: 1 2 3 4 5 6 7 8 9 10 11 12 13 14 15
000
FTUS46 KSTO 210500
TAFSAC
TAF
KSAC 210520Z 2106/2206 14007KT P6SM OVC035
     FM211200 VRB04KT 4SM BR OVC008
      TEMPO 2112/2116 1SM BR OVC003
     FM212000 18005KT P6SM BKN200=

USA.gov is the U.S. government's official web portal to all federal, state and local government web resources and services.